Terminal Aerodrome Forecast
Issued by NWS Wilmington, NC

Home | Current Version | Previous Version | Text Only | Print | Product List | Glossary On
Versions: 1 2 3 4 5 6 7 8 9 10 11 12 13 14 15 16 17
052
FTUS42 KILM 161722
TAFILM
TAF
KILM 161722Z 1618/1718 03006KT P6SM BKN015
     FM162200 05006KT P6SM BKN025
     FM170200 03005KT P6SM SCT010 BKN025
     FM170500 03003KT 4SM BR OVC007
     FM171600 27005KT P6SM SCT007 BKN020=

USA.gov is the U.S. government's official web portal to all federal, state and local government web resources and services.